Time;durP1;ratioP1;P1;durP2;ratioP2;P2;SDS_P1;SDS_P2;PMS_P1;PMS_P2;Temp;Humidity;BMP_temperature;BMP_pressure;BME280_temperature;BME280_humidity;BME280_pressure;Samples;Min_cycle;Max_cycle;Signal;HPM_P1;HPM_P2
2022/10/22 00:02:26;;;;;;;4.13;3.80;;;;;;;;;;5032836;28;20309;-84
2022/10/22 00:04:55;;;;;;;3.63;3.33;;;;;;;;;;5033034;28;20289;-85
2022/10/22 00:07:23;;;;;;;4.82;4.43;;;;;;;;;;5032650;28;20214;-84
2022/10/22 00:09:51;;;;;;;6.03;5.40;;;;;;;;;;5032298;28;20321;-84
2022/10/22 00:12:19;;;;;;;4.43;3.72;;;;;;;;;;5032525;28;20198;-85
2022/10/22 00:14:46;;;;;;;5.40;4.35;;;;;;;;;;5032990;28;20202;-84
2022/10/22 00:17:14;;;;;;;5.65;5.03;;;;;;;;;;5032724;28;20201;-85
2022/10/22 00:19:43;;;;;;;4.88;3.83;;;;;;;;;;5031739;28;20222;-84
2022/10/22 00:22:12;;;;;;;5.15;4.75;;;;;;;;;;5032442;28;20222;-84
2022/10/22 00:24:40;;;;;;;5.95;4.90;;;;;;;;;;5032053;28;20202;-84
2022/10/22 00:27:14;;;;;;;4.80;4.40;;;;;;;;;;5032667;28;20194;-84
2022/10/22 00:29:41;;;;;;;3.78;3.47;;;;;;;;;;5032499;28;20228;-84
2022/10/22 00:32:09;;;;;;;7.55;6.00;;;;;;;;;;5032363;28;20203;-85
2022/10/22 00:34:36;;;;;;;5.28;4.80;;;;;;;;;;5032614;28;20202;-84
2022/10/22 00:37:05;;;;;;;5.82;4.20;;;;;;;;;;5032197;28;20758;-84
2022/10/22 00:39:33;;;;;;;4.13;3.72;;;;;;;;;;5032283;28;20230;-84
2022/10/22 00:42:00;;;;;;;4.57;4.13;;;;;;;;;;5032173;28;20293;-84
2022/10/22 00:45:07;;;;;;;2.92;2.72;;;;;;;;;;5032601;28;20289;-84
2022/10/22 00:47:37;;;;;;;3.15;2.95;;;;;;;;;;5032400;28;20206;-84
2022/10/22 00:50:08;;;;;;;3.92;3.63;;;;;;;;;;5032542;28;20261;-84
2022/10/22 00:52:37;;;;;;;2.90;2.60;;;;;;;;;;5032825;28;20201;-84
2022/10/22 00:55:06;;;;;;;3.13;2.92;;;;;;;;;;5032578;28;20289;-84
2022/10/22 00:57:34;;;;;;;4.45;4.15;;;;;;;;;;5032384;28;20222;-84
2022/10/22 01:00:01;;;;;;;3.63;3.20;;;;;;;;;;5031987;28;20698;-84
2022/10/22 01:02:29;;;;;;;2.83;2.63;;;;;;;;;;5031966;28;20230;-84
2022/10/22 01:04:56;;;;;;;3.95;3.58;;;;;;;;;;5032493;28;20580;-84
2022/10/22 01:07:25;;;;;;;5.13;4.63;;;;;;;;;;5032071;28;20659;-84
2022/10/22 01:10:03;;;;;;;4.10;3.80;;;;;;;;;;5032121;28;20226;-84
2022/10/22 01:12:41;;;;;;;3.92;3.58;;;;;;;;;;5031901;28;20676;-84
2022/10/22 01:15:19;;;;;;;4.40;3.85;;;;;;;;;;5032454;28;20639;-84
2022/10/22 01:17:55;;;;;;;3.40;3.10;;;;;;;;;;5032776;28;20293;-84
2022/10/22 01:20:46;;;;;;;2.33;2.22;;;;;;;;;;5032976;28;20232;-84
2022/10/22 01:23:29;;;;;;;3.20;2.85;;;;;;;;;;5032376;28;20276;-84
2022/10/22 01:26:06;;;;;;;2.55;2.35;;;;;;;;;;5032478;28;20193;-84
2022/10/22 01:29:00;;;;;;;3.40;3.10;;;;;;;;;;5031785;28;20208;-84
2022/10/22 01:31:32;;;;;;;2.97;2.72;;;;;;;;;;5034944;28;20250;-84
2022/10/22 01:34:00;;;;;;;3.15;2.95;;;;;;;;;;5035997;28;20198;-85
2022/10/22 01:36:30;;;;;;;5.05;3.17;;;;;;;;;;5024066;28;20209;-84
2022/10/22 01:39:00;;;;;;;3.75;3.45;;;;;;;;;;5016163;28;20226;-84
2022/10/22 01:41:28;;;;;;;5.22;3.67;;;;;;;;;;5015999;28;20218;-85
2022/10/22 01:43:57;;;;;;;4.35;3.42;;;;;;;;;;5066567;22;20233;-86
2022/10/22 01:46:27;;;;;;;3.40;3.15;;;;;;;;;;5062419;28;20225;-85
2022/10/22 01:49:11;;;;;;;3.08;2.80;;;;;;;;;;5061409;28;20261;-85
2022/10/22 01:51:50;;;;;;;2.83;2.63;;;;;;;;;;5062567;28;20280;-85
2022/10/22 01:54:28;;;;;;;3.17;2.88;;;;;;;;;;5061902;28;20201;-84
2022/10/22 01:57:07;;;;;;;3.60;3.30;;;;;;;;;;5061135;28;20252;-84
2022/10/22 01:59:47;;;;;;;3.72;3.42;;;;;;;;;;5061373;28;20244;-85
2022/10/22 02:02:29;;;;;;;4.85;4.43;;;;;;;;;;5060979;28;20186;-83
2022/10/22 02:05:00;;;;;;;2.65;2.47;;;;;;;;;;5060360;28;20217;-85
2022/10/22 02:07:33;;;;;;;4.72;4.32;;;;;;;;;;5073153;22;21498;-86
2022/10/22 02:10:01;;;;;;;6.07;4.78;;;;;;;;;;5054966;28;20202;-85
2022/10/22 02:12:30;;;;;;;5.32;4.82;;;;;;;;;;5054643;28;20292;-85
2022/10/22 02:14:59;;;;;;;5.53;5.03;;;;;;;;;;5055330;28;20202;-85
2022/10/22 02:17:30;;;;;;;5.57;4.82;;;;;;;;;;5055284;28;20635;-86
2022/10/22 02:20:01;;;;;;;4.43;4.13;;;;;;;;;;5054090;28;20198;-85
2022/10/22 02:22:28;;;;;;;5.97;5.43;;;;;;;;;;5055320;28;20225;-86
2022/10/22 02:24:56;;;;;;;4.03;3.72;;;;;;;;;;5054687;28;20656;-85
2022/10/22 02:27:29;;;;;;;3.67;3.38;;;;;;;;;;5054903;28;20301;-86
2022/10/22 02:30:03;;;;;;;5.32;2.95;;;;;;;;;;5054818;28;20182;-86
2022/10/22 02:32:36;;;;;;;3.70;3.38;;;;;;;;;;5054770;28;20666;-86
2022/10/22 02:35:05;;;;;;;5.30;3.90;;;;;;;;;;5054520;28;20285;-86
2022/10/22 02:37:33;;;;;;;4.63;4.28;;;;;;;;;;5054589;28;20221;-86
2022/10/22 02:40:00;;;;;;;5.97;4.97;;;;;;;;;;5054149;28;20300;-86
2022/10/22 02:42:29;;;;;;;4.55;4.13;;;;;;;;;;5053884;28;20289;-86
2022/10/22 02:44:56;;;;;;;4.60;4.20;;;;;;;;;;5054548;28;20316;-85
2022/10/22 02:47:25;;;;;;;4.70;4.15;;;;;;;;;;5054617;28;20868;-85
2022/10/22 02:49:53;;;;;;;4.75;3.10;;;;;;;;;;5054483;28;20206;-85
2022/10/22 02:52:20;;;;;;;4.57;3.97;;;;;;;;;;5054402;28;20313;-86
2022/10/22 02:54:48;;;;;;;4.45;4.13;;;;;;;;;;5053962;28;20280;-86
2022/10/22 02:57:15;;;;;;;5.05;4.63;;;;;;;;;;5055871;28;20660;-86
2022/10/22 02:59:43;;;;;;;5.35;4.78;;;;;;;;;;5056039;28;20241;-87
2022/10/22 03:02:10;;;;;;;4.63;4.22;;;;;;;;;;5055647;28;20812;-86
2022/10/22 03:04:39;;;;;;;4.57;4.18;;;;;;;;;;5055318;28;20765;-86
2022/10/22 03:07:06;;;;;;;5.00;4.60;;;;;;;;;;5054136;28;20677;-86
2022/10/22 03:09:34;;;;;;;4.82;4.43;;;;;;;;;;5055060;28;20232;-86
2022/10/22 03:12:01;;;;;;;5.15;3.33;;;;;;;;;;5054817;28;20261;-85
2022/10/22 03:14:29;;;;;;;6.55;4.95;;;;;;;;;;5055482;28;20285;-86
2022/10/22 03:16:56;;;;;;;5.18;4.65;;;;;;;;;;5054919;28;20552;-86
2022/10/22 03:19:24;;;;;;;4.32;3.92;;;;;;;;;;5054818;28;20565;-86
2022/10/22 03:21:55;;;;;;;5.35;4.43;;;;;;;;;;5055227;28;20229;-85
2022/10/22 03:24:26;;;;;;;4.90;4.50;;;;;;;;;;5055865;28;20222;-86
2022/10/22 03:26:53;;;;;;;4.90;4.50;;;;;;;;;;5055592;28;20209;-85
2022/10/22 03:29:23;;;;;;;5.60;4.50;;;;;;;;;;5056587;28;20197;-86
2022/10/22 03:31:50;;;;;;;3.72;3.42;;;;;;;;;;5056646;28;20680;-85
2022/10/22 03:34:18;;;;;;;3.15;2.90;;;;;;;;;;5056278;28;20217;-84
2022/10/22 03:36:46;;;;;;;3.55;3.25;;;;;;;;;;5055895;28;20237;-84
2022/10/22 03:39:16;;;;;;;5.03;4.63;;;;;;;;;;5056330;28;20788;-86
2022/10/22 03:41:44;;;;;;;5.13;4.65;;;;;;;;;;5056046;28;20198;-87
2022/10/22 03:44:11;;;;;;;3.58;3.00;;;;;;;;;;5055862;28;20233;-85
2022/10/22 03:46:39;;;;;;;2.85;2.65;;;;;;;;;;5055902;28;20284;-86
2022/10/22 03:49:06;;;;;;;2.92;2.72;;;;;;;;;;5055988;28;20218;-86
2022/10/22 03:51:34;;;;;;;3.10;2.90;;;;;;;;;;5056448;28;20296;-86
2022/10/22 03:54:02;;;;;;;4.05;3.75;;;;;;;;;;5054801;28;20744;-85
2022/10/22 03:56:31;;;;;;;3.67;3.28;;;;;;;;;;5056061;28;20284;-86
2022/10/22 03:59:01;;;;;;;3.97;3.67;;;;;;;;;;5055357;28;20308;-85
2022/10/22 04:01:30;;;;;;;3.00;2.78;;;;;;;;;;5055719;28;20193;-85
2022/10/22 04:03:58;;;;;;;8.98;4.70;;;;;;;;;;5054036;28;20202;-86
2022/10/22 04:06:25;;;;;;;4.57;4.07;;;;;;;;;;5054351;28;20673;-86
2022/10/22 04:08:53;;;;;;;6.45;4.65;;;;;;;;;;5054012;28;20753;-86
2022/10/22 04:11:20;;;;;;;4.20;3.80;;;;;;;;;;5054155;28;20567;-86
2022/10/22 04:13:49;;;;;;;3.38;2.95;;;;;;;;;;5053923;28;20676;-85
2022/10/22 04:16:19;;;;;;;3.28;2.97;;;;;;;;;;5054372;28;20657;-86
2022/10/22 04:18:49;;;;;;;4.03;3.30;;;;;;;;;;5054888;28;20225;-86
2022/10/22 04:21:19;;;;;;;2.67;2.47;;;;;;;;;;5054262;28;20194;-85
2022/10/22 04:23:47;;;;;;;3.75;3.45;;;;;;;;;;5054526;28;20297;-86
2022/10/22 04:26:15;;;;;;;5.47;4.60;;;;;;;;;;5055255;28;20288;-85
2022/10/22 04:28:43;;;;;;;4.50;3.47;;;;;;;;;;5054830;28;20221;-86
2022/10/22 04:31:13;;;;;;;6.35;5.22;;;;;;;;;;5055839;28;20201;-86
2022/10/22 04:33:41;;;;;;;3.88;3.50;;;;;;;;;;5055787;28;20205;-86
2022/10/22 04:36:10;;;;;;;4.32;3.85;;;;;;;;;;5055032;28;20244;-85
2022/10/22 04:38:38;;;;;;;5.63;5.05;;;;;;;;;;5054675;28;20261;-85
2022/10/22 04:41:14;;;;;;;4.10;3.70;;;;;;;;;;5055224;28;20237;-86
2022/10/22 04:43:41;;;;;;;3.03;2.75;;;;;;;;;;5055278;28;20697;-85
2022/10/22 04:46:11;;;;;;;2.45;2.25;;;;;;;;;;5055326;28;20221;-86
2022/10/22 04:48:40;;;;;;;2.72;2.53;;;;;;;;;;5054874;28;20279;-85
2022/10/22 04:51:10;;;;;;;3.40;3.10;;;;;;;;;;5055070;28;20202;-85
2022/10/22 04:53:39;;;;;;;3.50;3.20;;;;;;;;;;5054370;28;20196;-86
2022/10/22 04:56:12;;;;;;;3.85;3.55;;;;;;;;;;5055104;28;20197;-86
2022/10/22 04:58:40;;;;;;;5.38;4.30;;;;;;;;;;5054660;28;20232;-86
2022/10/22 05:01:15;;;;;;;5.53;5.03;;;;;;;;;;5055210;28;20229;-84
2022/10/22 05:03:43;;;;;;;6.20;5.28;;;;;;;;;;5055197;28;20187;-86
2022/10/22 05:06:11;;;;;;;4.75;4.35;;;;;;;;;;5057251;28;20312;-87
2022/10/22 05:08:39;;;;;;;4.20;3.80;;;;;;;;;;5058798;28;20613;-86
2022/10/22 05:11:15;;;;;;;5.60;5.10;;;;;;;;;;5058788;28;20296;-86
2022/10/22 05:13:42;;;;;;;6.45;5.75;;;;;;;;;;5057907;28;20201;-86
2022/10/22 05:16:12;;;;;;;5.82;5.30;;;;;;;;;;5059152;28;20288;-84
2022/10/22 05:18:42;;;;;;;4.43;4.03;;;;;;;;;;5057841;28;20227;-85
2022/10/22 05:21:12;;;;;;;6.53;5.03;;;;;;;;;;5058608;28;20212;-85
2022/10/22 05:23:39;;;;;;;4.05;3.75;;;;;;;;;;5058977;28;20208;-86
2022/10/22 05:26:09;;;;;;;5.88;4.65;;;;;;;;;;5058698;28;20316;-85
2022/10/22 05:28:37;;;;;;;3.78;3.40;;;;;;;;;;5058939;28;20313;-86
2022/10/22 05:31:06;;;;;;;6.22;5.50;;;;;;;;;;5058509;28;20285;-86
2022/10/22 05:33:35;;;;;;;4.35;3.30;;;;;;;;;;5059073;28;20564;-85
2022/10/22 05:36:04;;;;;;;2.88;2.60;;;;;;;;;;5059686;28;20197;-85
2022/10/22 05:38:33;;;;;;;4.45;3.03;;;;;;;;;;5058701;28;20241;-85
2022/10/22 05:41:01;;;;;;;3.78;3.47;;;;;;;;;;5058125;28;20634;-84
2022/10/22 05:43:29;;;;;;;5.40;3.60;;;;;;;;;;5056263;28;20216;-86
2022/10/22 05:45:57;;;;;;;4.00;3.70;;;;;;;;;;5055809;28;20916;-86
2022/10/22 05:48:24;;;;;;;3.30;3.10;;;;;;;;;;5055654;28;20222;-85
2022/10/22 05:50:56;;;;;;;4.28;3.92;;;;;;;;;;5055191;28;20225;-86
2022/10/22 05:53:23;;;;;;;6.05;5.40;;;;;;;;;;5056061;28;20632;-86
2022/10/22 05:55:51;;;;;;;5.00;4.50;;;;;;;;;;5056089;28;20292;-85
2022/10/22 05:58:18;;;;;;;4.85;4.35;;;;;;;;;;5055579;28;20256;-86
2022/10/22 06:00:46;;;;;;;4.28;3.97;;;;;;;;;;5056097;28;20237;-85
2022/10/22 06:03:13;;;;;;;5.38;4.88;;;;;;;;;;5056162;28;20284;-85
2022/10/22 06:05:40;;;;;;;4.38;3.97;;;;;;;;;;5056397;28;20591;-85
2022/10/22 06:08:11;;;;;;;3.65;3.35;;;;;;;;;;5056653;28;20315;-85
2022/10/22 06:10:41;;;;;;;3.80;3.50;;;;;;;;;;5056898;28;20212;-85
2022/10/22 06:13:09;;;;;;;4.72;4.30;;;;;;;;;;5056553;28;20285;-86
2022/10/22 06:15:37;;;;;;;6.38;5.15;;;;;;;;;;5056344;28;20680;-86
2022/10/22 06:18:04;;;;;;;6.38;5.00;;;;;;;;;;5055224;28;20244;-87
2022/10/22 06:20:33;;;;;;;5.10;4.65;;;;;;;;;;5055452;28;20256;-86
2022/10/22 06:23:01;;;;;;;3.40;3.20;;;;;;;;;;5055715;28;20589;-86
2022/10/22 06:25:30;;;;;;;4.25;3.85;;;;;;;;;;5055711;28;20228;-86
2022/10/22 06:27:57;;;;;;;4.10;3.65;;;;;;;;;;5055823;28;20245;-86
2022/10/22 06:30:24;;;;;;;5.55;5.05;;;;;;;;;;5056308;28;20288;-86
2022/10/22 06:32:52;;;;;;;4.30;3.58;;;;;;;;;;5056938;28;20263;-85
2022/10/22 06:35:19;;;;;;;5.25;4.75;;;;;;;;;;5056334;28;20241;-86
2022/10/22 06:37:47;;;;;;;4.80;4.40;;;;;;;;;;5056235;28;20226;-86
2022/10/22 06:40:15;;;;;;;4.28;3.92;;;;;;;;;;5057729;28;20229;-85
2022/10/22 06:42:44;;;;;;;5.90;4.38;;;;;;;;;;5055708;28;20206;-85
2022/10/22 06:45:12;;;;;;;3.58;3.28;;;;;;;;;;5055374;28;20200;-84
2022/10/22 06:47:39;;;;;;;6.50;4.30;;;;;;;;;;5056031;28;20268;-85
2022/10/22 06:50:08;;;;;;;7.07;5.70;;;;;;;;;;5055857;28;20229;-85
2022/10/22 06:52:35;;;;;;;3.83;3.53;;;;;;;;;;5055631;28;20280;-86
2022/10/22 06:55:03;;;;;;;4.65;4.25;;;;;;;;;;5054909;28;20229;-85
2022/10/22 06:57:31;;;;;;;6.20;4.38;;;;;;;;;;5054375;28;20304;-86
2022/10/22 07:00:00;;;;;;;4.97;4.47;;;;;;;;;;5054808;28;20198;-86
2022/10/22 07:02:27;;;;;;;5.90;5.30;;;;;;;;;;5054670;28;20297;-85
2022/10/22 07:04:55;;;;;;;5.93;5.00;;;;;;;;;;5054848;28;20225;-85
2022/10/22 07:07:22;;;;;;;7.78;6.97;;;;;;;;;;5053983;28;20308;-85
2022/10/22 07:09:50;;;;;;;7.63;6.85;;;;;;;;;;5054300;28;20243;-86
2022/10/22 07:12:17;;;;;;;5.03;4.53;;;;;;;;;;5054554;28;20297;-86
2022/10/22 07:14:45;;;;;;;8.32;7.32;;;;;;;;;;5054396;28;20300;-85
2022/10/22 07:17:14;;;;;;;7.05;5.95;;;;;;;;;;5054619;28;20284;-84
2022/10/22 07:19:41;;;;;;;4.75;4.35;;;;;;;;;;5055722;28;20536;-85
2022/10/22 07:22:08;;;;;;;3.67;3.38;;;;;;;;;;5055415;28;20637;-85
2022/10/22 07:24:36;;;;;;;4.43;4.03;;;;;;;;;;5055077;28;20269;-85
2022/10/22 07:27:04;;;;;;;6.63;5.85;;;;;;;;;;5054602;28;20316;-85
2022/10/22 07:29:31;;;;;;;8.88;7.97;;;;;;;;;;5054627;28;20292;-84
2022/10/22 07:31:59;;;;;;;10.00;8.52;;;;;;;;;;5036937;28;20193;-84
2022/10/22 07:34:27;;;;;;;9.10;6.65;;;;;;;;;;5054701;28;20201;-81
2022/10/22 07:36:56;;;;;;;6.97;6.22;;;;;;;;;;5054873;28;20284;-84
2022/10/22 07:39:24;;;;;;;5.53;5.03;;;;;;;;;;5054771;28;20202;-85
2022/10/22 07:41:52;;;;;;;6.40;5.25;;;;;;;;;;5055196;28;20201;-84
2022/10/22 07:44:19;;;;;;;8.98;5.43;;;;;;;;;;5055160;28;20719;-86
2022/10/22 07:46:47;;;;;;;5.35;4.35;;;;;;;;;;5056135;28;20719;-86
2022/10/22 07:49:16;;;;;;;4.53;3.95;;;;;;;;;;5055959;28;20311;-85
2022/10/22 07:51:45;;;;;;;4.55;4.15;;;;;;;;;;5056653;28;20285;-85
2022/10/22 07:54:12;;;;;;;4.20;3.85;;;;;;;;;;5057879;28;20229;-84
2022/10/22 07:56:40;;;;;;;3.85;3.55;;;;;;;;;;5056038;28;20206;-84
2022/10/22 07:59:07;;;;;;;3.80;3.50;;;;;;;;;;5056152;28;20253;-85
2022/10/22 08:01:35;;;;;;;3.38;3.08;;;;;;;;;;5056137;28;20690;-85
2022/10/22 08:04:02;;;;;;;5.97;3.72;;;;;;;;;;5055933;28;20288;-85
2022/10/22 08:06:30;;;;;;;3.30;3.10;;;;;;;;;;5055433;28;20283;-84
2022/10/22 08:08:58;;;;;;;3.15;2.70;;;;;;;;;;5053396;28;20316;-88
2022/10/22 08:11:26;;;;;;;2.90;2.70;;;;;;;;;;5053372;28;20568;-88
2022/10/22 08:13:54;;;;;;;3.22;2.92;;;;;;;;;;5052662;28;20212;-87
2022/10/22 08:16:21;;;;;;;3.42;3.08;;;;;;;;;;5053019;28;20296;-87
2022/10/22 08:18:49;;;;;;;3.63;3.22;;;;;;;;;;5053253;28;20363;-84
2022/10/22 08:21:17;;;;;;;5.07;2.95;;;;;;;;;;5053206;28;20233;-87
2022/10/22 08:23:44;;;;;;;3.72;2.85;;;;;;;;;;5054107;28;20212;-87
2022/10/22 08:26:13;;;;;;;3.00;2.33;;;;;;;;;;5052932;28;20197;-86
2022/10/22 08:28:41;;;;;;;3.63;3.33;;;;;;;;;;5052691;28;20235;-87
2022/10/22 08:31:09;;;;;;;2.53;2.25;;;;;;;;;;5053268;28;20229;-86
2022/10/22 08:33:37;;;;;;;2.08;1.98;;;;;;;;;;5052577;28;20205;-87
2022/10/22 08:36:06;;;;;;;5.40;2.47;;;;;;;;;;5053216;28;20609;-87
2022/10/22 08:38:36;;;;;;;2.60;2.40;;;;;;;;;;5052328;28;20224;-87
2022/10/22 08:41:10;;;;;;;4.45;2.88;;;;;;;;;;5052363;28;20182;-87
2022/10/22 08:44:10;;;;;;;2.55;2.35;;;;;;;;;;5052852;28;20217;-87
2022/10/22 08:46:56;;;;;;;3.25;2.97;;;;;;;;;;5052514;28;20284;-88
2022/10/22 08:49:26;;;;;;;3.05;1.98;;;;;;;;;;5052650;28;20306;-88
2022/10/22 08:51:54;;;;;;;2.50;2.30;;;;;;;;;;5052429;28;20285;-87
2022/10/22 08:54:36;;;;;;;3.53;2.88;;;;;;;;;;5052936;28;20244;-87
2022/10/22 08:57:30;;;;;;;2.90;2.25;;;;;;;;;;5052719;28;20235;-87
2022/10/22 09:00:04;;;;;;;4.13;3.42;;;;;;;;;;5052725;28;20559;-87
2022/10/22 09:02:40;;;;;;;2.28;2.08;;;;;;;;;;5052523;28;20220;-87
2022/10/22 09:05:23;;;;;;;2.42;1.80;;;;;;;;;;5052703;28;20571;-87
2022/10/22 09:07:51;;;;;;;2.08;1.77;;;;;;;;;;5052291;28;20233;-89
2022/10/22 09:10:22;;;;;;;2.20;2.00;;;;;;;;;;5052339;28;20647;-89
2022/10/22 09:12:49;;;;;;;4.30;2.45;;;;;;;;;;5052252;28;20616;-89
2022/10/22 09:15:19;;;;;;;5.00;2.28;;;;;;;;;;5052673;28;20293;-88
2022/10/22 09:18:03;;;;;;;3.13;2.83;;;;;;;;;;5052615;28;20704;-90
2022/10/22 09:20:38;;;;;;;1.63;1.52;;;;;;;;;;5052261;28;20196;-88
2022/10/22 09:23:25;;;;;;;1.40;1.30;;;;;;;;;;5052683;28;20280;-88
2022/10/22 09:25:59;;;;;;;1.80;1.70;;;;;;;;;;5052496;28;20182;-88
2022/10/22 09:28:26;;;;;;;3.08;2.30;;;;;;;;;;5052126;28;20307;-88
2022/10/22 09:30:56;;;;;;;2.35;2.15;;;;;;;;;;5052164;28;20248;-88
2022/10/22 09:33:27;;;;;;;2.28;2.10;;;;;;;;;;5052074;28;20233;-88
2022/10/22 09:35:56;;;;;;;5.25;2.75;;;;;;;;;;5052091;28;20262;-88
2022/10/22 09:38:27;;;;;;;4.53;1.98;;;;;;;;;;5051994;28;20697;-89
2022/10/22 09:40:58;;;;;;;2.17;1.77;;;;;;;;;;5052307;28;20182;-88
2022/10/22 09:43:26;;;;;;;5.00;1.92;;;;;;;;;;5051897;28;20292;-89
2022/10/22 09:45:59;;;;;;;3.38;2.15;;;;;;;;;;5052287;28;20284;-87
2022/10/22 09:48:33;;;;;;;3.08;2.33;;;;;;;;;;5051826;28;20232;-88
2022/10/22 09:51:06;;;;;;;4.03;2.10;;;;;;;;;;5052411;28;20229;-88
2022/10/22 09:53:39;;;;;;;2.65;2.10;;;;;;;;;;5055848;28;20268;-89
2022/10/22 09:56:17;;;;;;;4.88;2.33;;;;;;;;;;5056027;28;20239;-89
2022/10/22 09:58:48;;;;;;;3.33;1.95;;;;;;;;;;5055740;28;20623;-88
2022/10/22 10:01:20;;;;;;;3.08;2.15;;;;;;;;;;5055832;28;20189;-89
2022/10/22 10:03:49;;;;;;;2.63;1.52;;;;;;;;;;5055573;28;20217;-88
2022/10/22 10:06:20;;;;;;;2.78;1.95;;;;;;;;;;5055459;28;20205;-88
2022/10/22 10:08:48;;;;;;;2.50;2.00;;;;;;;;;;5055114;28;20221;-88
2022/10/22 10:11:26;;;;;;;2.17;1.98;;;;;;;;;;5055543;28;20355;-89
2022/10/22 10:14:07;;;;;;;3.53;1.73;;;;;;;;;;5055361;28;20622;-89
2022/10/22 10:16:46;;;;;;;1.75;1.65;;;;;;;;;;5055409;28;20186;-88
2022/10/22 10:19:43;;;;;;;1.88;1.70;;;;;;;;;;5054911;28;20245;-89
2022/10/22 10:22:22;;;;;;;2.35;1.88;;;;;;;;;;5046290;28;20288;-89
2022/10/22 10:25:03;;;;;;;1.48;1.38;;;;;;;;;;5055238;28;20566;-89
2022/10/22 10:27:37;;;;;;;1.80;1.70;;;;;;;;;;5055510;28;20227;-88
2022/10/22 10:30:13;;;;;;;2.72;1.80;;;;;;;;;;5055080;28;20232;-89
2022/10/22 10:33:11;;;;;;;3.47;1.98;;;;;;;;;;5055127;28;20213;-89
2022/10/22 10:35:47;;;;;;;1.98;1.88;;;;;;;;;;5055141;28;20565;-89
2022/10/22 10:38:42;;;;;;;1.70;1.42;;;;;;;;;;5055556;28;20308;-89
2022/10/22 10:41:20;;;;;;;3.13;1.65;;;;;;;;;;5054836;28;20282;-89
2022/10/22 10:44:16;;;;;;;1.73;1.30;;;;;;;;;;5054913;28;20276;-88
2022/10/22 10:46:55;;;;;;;1.25;1.13;;;;;;;;;;5055117;28;20606;-89
2022/10/22 10:49:27;;;;;;;1.48;1.38;;;;;;;;;;5054819;28;20904;-88
2022/10/22 10:52:01;;;;;;;1.70;1.60;;;;;;;;;;5054714;28;20218;-88
2022/10/22 10:54:45;;;;;;;4.47;1.65;;;;;;;;;;5054782;28;20217;-88
2022/10/22 10:57:22;;;;;;;2.65;1.60;;;;;;;;;;5054655;28;20225;-88
2022/10/22 11:00:06;;;;;;;2.00;1.60;;;;;;;;;;5054420;28;20233;-89
2022/10/22 11:03:40;;;;;;;2.78;1.85;;;;;;;;;;5054332;28;20209;-88
2022/10/22 11:06:11;;;;;;;1.17;1.10;;;;;;;;;;5041552;28;20209;-89
2022/10/22 11:08:42;;;;;;;1.85;1.20;;;;;;;;;;5053964;28;20321;-88
2022/10/22 11:11:15;;;;;;;2.67;1.73;;;;;;;;;;5054476;28;20609;-89
2022/10/22 11:13:47;;;;;;;2.60;1.50;;;;;;;;;;5054296;28;20666;-89
2022/10/22 11:16:24;;;;;;;2.47;1.58;;;;;;;;;;5054247;28;20255;-89
2022/10/22 11:19:02;;;;;;;1.38;1.20;;;;;;;;;;5053984;28;20300;-89
2022/10/22 11:21:38;;;;;;;0.80;0.80;;;;;;;;;;5054377;28;20200;-88
2022/10/22 11:24:15;;;;;;;1.33;1.27;;;;;;;;;;5054409;28;20541;-88
2022/10/22 11:26:47;;;;;;;2.97;2.40;;;;;;;;;;5054118;28;20697;-88
2022/10/22 11:29:20;;;;;;;2.00;1.40;;;;;;;;;;5053456;28;20321;-88
2022/10/22 11:31:47;;;;;;;1.38;1.27;;;;;;;;;;5053768;28;20292;-88
2022/10/22 11:34:21;;;;;;;2.63;1.50;;;;;;;;;;5054135;28;20229;-88
2022/10/22 11:36:50;;;;;;;2.15;1.40;;;;;;;;;;5053698;28;20205;-88
2022/10/22 11:39:39;;;;;;;2.00;1.33;;;;;;;;;;5053584;28;20304;-89
2022/10/22 11:42:10;;;;;;;2.88;1.55;;;;;;;;;;5054408;28;20645;-87
2022/10/22 11:44:48;;;;;;;1.65;1.48;;;;;;;;;;5053657;28;20224;-87
2022/10/22 11:47:23;;;;;;;1.20;1.20;;;;;;;;;;5053794;28;20273;-88
2022/10/22 11:49:59;;;;;;;1.75;1.52;;;;;;;;;;5053525;28;20300;-88
2022/10/22 11:52:41;;;;;;;2.03;1.45;;;;;;;;;;5053623;28;20636;-88
2022/10/22 11:55:44;;;;;;;1.23;1.13;;;;;;;;;;5053629;28;20202;-88
2022/10/22 11:58:34;;;;;;;2.80;0.90;;;;;;;;;;5053235;28;20217;-87
2022/10/22 12:01:25;;;;;;;1.58;1.30;;;;;;;;;;5053513;28;20269;-88
2022/10/22 12:03:54;;;;;;;2.35;1.48;;;;;;;;;;5053401;28;20265;-88
2022/10/22 12:06:24;;;;;;;3.72;1.50;;;;;;;;;;5053193;28;20225;-88
2022/10/22 12:09:06;;;;;;;2.00;1.38;;;;;;;;;;5052917;28;20312;-88
2022/10/22 12:11:37;;;;;;;2.70;1.25;;;;;;;;;;5053247;28;20700;-87
2022/10/22 12:14:19;;;;;;;2.85;1.08;;;;;;;;;;5053182;28;20186;-87
2022/10/22 12:16:48;;;;;;;2.08;1.00;;;;;;;;;;5053082;28;20201;-88
2022/10/22 12:19:22;;;;;;;1.48;1.20;;;;;;;;;;5053073;28;20304;-88
2022/10/22 12:21:53;;;;;;;1.23;1.08;;;;;;;;;;5053260;28;20526;-88
2022/10/22 12:24:24;;;;;;;1.77;1.40;;;;;;;;;;5053021;28;20228;-87
2022/10/22 12:26:52;;;;;;;1.55;1.10;;;;;;;;;;5052947;28;20235;-87
2022/10/22 12:29:24;;;;;;;1.13;0.90;;;;;;;;;;5052640;28;20653;-88
2022/10/22 12:31:52;;;;;;;3.63;1.17;;;;;;;;;;5053044;28;20733;-88
2022/10/22 12:34:23;;;;;;;1.98;1.30;;;;;;;;;;5052455;28;20301;-87
2022/10/22 12:36:53;;;;;;;1.10;1.10;;;;;;;;;;5053013;28;20207;-88
2022/10/22 12:39:25;;;;;;;1.83;1.55;;;;;;;;;;5052472;28;20217;-88
2022/10/22 12:41:54;;;;;;;0.88;0.88;;;;;;;;;;5053143;28;20270;-87
2022/10/22 12:44:21;;;;;;;1.27;1.17;;;;;;;;;;5052782;28;20221;-88
2022/10/22 12:46:50;;;;;;;1.23;1.00;;;;;;;;;;5052832;28;20293;-88
2022/10/22 12:49:21;;;;;;;0.60;0.60;;;;;;;;;;5052333;28;20235;-88
2022/10/22 12:51:49;;;;;;;1.10;1.00;;;;;;;;;;5052617;28;20188;-87
2022/10/22 12:54:26;;;;;;;2.45;1.15;;;;;;;;;;5052819;28;20296;-87
2022/10/22 12:56:55;;;;;;;1.42;1.30;;;;;;;;;;5053039;28;20194;-88
2022/10/22 12:59:25;;;;;;;2.65;1.02;;;;;;;;;;5052847;28;20219;-87
2022/10/22 13:01:54;;;;;;;0.95;0.95;;;;;;;;;;5052954;28;20555;-88
2022/10/22 13:04:32;;;;;;;1.70;1.08;;;;;;;;;;5052759;28;20614;-88
2022/10/22 13:07:17;;;;;;;2.75;1.15;;;;;;;;;;5052520;28;20284;-88
2022/10/22 13:09:56;;;;;;;2.35;1.15;;;;;;;;;;5052318;28;20228;-87
2022/10/22 13:12:25;;;;;;;1.08;0.90;;;;;;;;;;5052416;28;20209;-87
2022/10/22 13:14:53;;;;;;;2.42;2.22;;;;;;;;;;5052654;28;20202;-87
2022/10/22 13:17:37;;;;;;;1.52;1.42;;;;;;;;;;5052379;28;20304;-88
2022/10/22 13:20:16;;;;;;;1.88;1.33;;;;;;;;;;5052879;28;20273;-88
2022/10/22 13:22:58;;;;;;;1.50;0.90;;;;;;;;;;5052679;28;20280;-87
2022/10/22 13:25:30;;;;;;;0.70;0.70;;;;;;;;;;5052826;28;20197;-87
2022/10/22 13:28:00;;;;;;;2.50;1.00;;;;;;;;;;5055824;28;20221;-88
2022/10/22 13:30:30;;;;;;;1.98;0.88;;;;;;;;;;5056498;28;20634;-87
2022/10/22 13:32:59;;;;;;;0.82;0.68;;;;;;;;;;5056416;28;20196;-87
2022/10/22 13:35:29;;;;;;;1.38;0.70;;;;;;;;;;5056758;28;20272;-88
2022/10/22 13:37:56;;;;;;;0.70;0.65;;;;;;;;;;5056575;28;20271;-87
2022/10/22 13:40:24;;;;;;;0.80;0.80;;;;;;;;;;5055919;28;20280;-87
2022/10/22 13:42:53;;;;;;;0.73;0.70;;;;;;;;;;5056437;28;20259;-87
2022/10/22 13:45:21;;;;;;;2.75;1.10;;;;;;;;;;5056608;28;20304;-87
2022/10/22 13:47:52;;;;;;;1.02;0.98;;;;;;;;;;5055893;28;20213;-87
2022/10/22 13:50:21;;;;;;;1.95;1.30;;;;;;;;;;5056200;28;20652;-87
2022/10/22 13:52:52;;;;;;;4.53;1.08;;;;;;;;;;5056526;28;20208;-87
2022/10/22 13:55:24;;;;;;;1.83;1.70;;;;;;;;;;5056174;28;20269;-87
2022/10/22 13:57:53;;;;;;;1.00;1.00;;;;;;;;;;5055800;28;20225;-87
2022/10/22 14:00:25;;;;;;;2.13;1.20;;;;;;;;;;5055747;28;20288;-87
2022/10/22 14:02:57;;;;;;;3.08;1.90;;;;;;;;;;5055916;28;20263;-87
2022/10/22 14:05:33;;;;;;;4.43;1.95;;;;;;;;;;5056201;28;20206;-87
2022/10/22 14:08:01;;;;;;;2.15;1.42;;;;;;;;;;5064656;23;20233;-85
2022/10/22 14:10:28;;;;;;;3.00;1.23;;;;;;;;;;5081403;28;20292;-85
2022/10/22 14:12:58;;;;;;;1.17;0.90;;;;;;;;;;5081819;28;20268;-85
2022/10/22 14:15:28;;;;;;;1.17;1.10;;;;;;;;;;5080644;28;20279;-85
2022/10/22 14:17:58;;;;;;;2.70;1.42;;;;;;;;;;5080671;28;20224;-85
2022/10/22 14:20:28;;;;;;;2.17;1.83;;;;;;;;;;5080801;28;20261;-85
2022/10/22 14:22:56;;;;;;;2.10;1.50;;;;;;;;;;5079734;28;20231;-85
2022/10/22 14:25:25;;;;;;;1.08;0.98;;;;;;;;;;5080328;28;20243;-84
2022/10/22 14:27:53;;;;;;;0.90;0.90;;;;;;;;;;5079770;28;20684;-84
2022/10/22 14:30:24;;;;;;;0.95;0.80;;;;;;;;;;5080362;28;20221;-85
2022/10/22 14:32:52;;;;;;;3.80;1.45;;;;;;;;;;5080136;28;20205;-84
2022/10/22 14:35:22;;;;;;;1.60;1.05;;;;;;;;;;5078026;28;20220;-84
2022/10/22 14:37:50;;;;;;;1.38;1.10;;;;;;;;;;5047810;28;20197;-84
2022/10/22 14:40:20;;;;;;;3.05;2.17;;;;;;;;;;5040179;28;20190;-84
2022/10/22 14:42:49;;;;;;;2.20;1.25;;;;;;;;;;5039506;28;20281;-84
2022/10/22 14:45:21;;;;;;;1.90;1.40;;;;;;;;;;5035776;28;20717;-86
2022/10/22 14:47:49;;;;;;;1.63;1.30;;;;;;;;;;5037471;28;20212;-84
2022/10/22 14:50:17;;;;;;;1.38;1.13;;;;;;;;;;5037887;28;20667;-84
2022/10/22 14:52:45;;;;;;;1.17;0.50;;;;;;;;;;5039256;28;20202;-84
2022/10/22 14:55:15;;;;;;;1.50;1.40;;;;;;;;;;5046027;28;20200;-84
2022/10/22 14:57:43;;;;;;;0.70;0.70;;;;;;;;;;5059643;28;20205;-84
2022/10/22 15:00:14;;;;;;;0.88;0.88;;;;;;;;;;5058467;28;20389;-84
2022/10/22 15:02:42;;;;;;;1.25;0.70;;;;;;;;;;5058769;28;20765;-83
2022/10/22 15:05:10;;;;;;;1.38;0.73;;;;;;;;;;5057549;28;20273;-82
2022/10/22 15:07:38;;;;;;;0.40;0.40;;;;;;;;;;5056841;28;20244;-83
2022/10/22 15:10:08;;;;;;;0.70;0.70;;;;;;;;;;5056221;28;20268;-84